Dubois, Illinois
Current Conditions -  °F | °C
As of 2:15 PM on Thursday 29 Jan 2015 (Local Time) from KMVN Reporting Station
Overcast Overcast  
Wind Chill: 34°   Ceiling: 2300
Heat Index: 39°   Visibility: 10mi
Dew Point: 28°   Wind: 8mph
Humidity: 65%   Direction: 300°WNW
Pressure: 30.16"   Gusts: 17mph
Location:  38.2577°N, 89.2025°W
Report Text: KMVN 292015Z AUTO 30007G15KT 280V340 10SM OVC023 04/M02 A3016 RMK AO1
Loading
Personal Weather Stations






























Interactive Weather Map New forecast layout! Learn more

10-Day Weather Forecast

Advertisements
Track Severe Weather on mobile